createdAt,value
2018-01-02T00:02:11.170Z,96704.02
2018-01-02T00:04:40.775Z,96722.81
2018-01-02T00:07:10.894Z,96730.20
2018-01-02T00:09:38.525Z,96738.20
2018-01-02T00:12:11.668Z,96755.77
2018-01-02T00:14:41.131Z,96747.11
2018-01-02T00:17:10.535Z,96751.08
2018-01-02T00:19:39.736Z,96743.39
2018-01-02T00:22:08.260Z,96748.41
2018-01-02T00:24:36.245Z,96721.32
2018-01-02T00:27:03.952Z,96760.98
2018-01-02T00:29:31.543Z,96740.98
2018-01-02T00:31:59.071Z,96762.99
2018-01-02T00:34:26.728Z,96787.79
2018-01-02T00:36:54.334Z,96787.50
2018-01-02T00:39:21.882Z,96798.52
2018-01-02T00:41:49.623Z,96804.97
2018-01-02T00:44:17.534Z,96818.54
2018-01-02T00:46:46.531Z,96819.71
2018-01-02T00:49:14.266Z,96820.13
2018-01-02T00:51:45.721Z,96831.77
2018-01-02T00:54:13.914Z,96835.70
2018-01-02T00:56:42.529Z,96844.22
2018-01-02T00:59:10.224Z,96846.91
2018-01-02T01:01:38.419Z,96854.67
2018-01-02T01:04:06.634Z,96853.73
2018-01-02T01:06:34.387Z,96868.09
2018-01-02T01:09:02.187Z,96876.02
2018-01-02T01:11:30.236Z,96881.63
2018-01-02T01:13:58.805Z,96873.82
2018-01-02T01:16:26.581Z,96900.03
2018-01-02T01:18:55.317Z,96914.53
2018-01-02T01:21:23.444Z,96916.69
2018-01-02T01:23:51.065Z,96920.69
2018-01-02T01:26:19.847Z,96933.73
2018-01-02T01:28:47.567Z,96939.17
2018-01-02T01:31:18.310Z,96946.86
2018-01-02T01:33:47.198Z,96942.02
2018-01-02T01:36:15.937Z,96951.64
2018-01-02T01:38:45.354Z,96963.50
2018-01-02T01:41:14.434Z,96960.95
2018-01-02T01:43:42.245Z,96961.64
2018-01-02T01:46:10.192Z,96967.63
2018-01-02T01:48:50.060Z,96964.14
2018-01-02T01:51:20.751Z,96980.69
2018-01-02T01:53:48.595Z,96976.51
2018-01-02T01:56:16.357Z,96979.69
2018-01-02T01:58:45.332Z,96986.38
2018-01-02T02:01:15.359Z,96988.31
2018-01-02T02:03:44.357Z,96992.95
2018-01-02T02:06:15.050Z,97001.19
2018-01-02T02:08:45.980Z,96998.64
2018-01-02T02:11:14.613Z,97004.08
2018-01-02T02:13:42.690Z,97008.90
2018-01-02T02:16:10.952Z,97009.28
2018-01-02T02:21:24.057Z,97017.55
2018-01-02T02:24:01.440Z,97015.31
2018-01-02T02:26:39.574Z,97016.44
2018-01-02T02:29:20.907Z,97015.83
2018-01-02T02:31:50.306Z,97019.13
2018-01-02T02:34:22.506Z,97021.09
2018-01-02T02:36:50.461Z,97021.58
2018-01-02T02:39:18.120Z,97038.89
2018-01-02T02:42:07.477Z,97025.58
2018-01-02T02:44:49.930Z,97040.50
2018-01-02T03:26:40.626Z,97057.04
2018-01-02T03:29:08.301Z,97056.09
2018-01-02T03:31:35.990Z,97057.42
2018-01-02T03:34:03.672Z,97061.69
2018-01-02T03:36:31.611Z,97049.97
2018-01-02T03:38:59.350Z,97050.51
2018-01-02T03:41:29.086Z,97053.84
2018-01-02T03:43:56.769Z,97051.84
2018-01-02T03:46:24.344Z,97051.19
2018-01-02T03:48:52.137Z,97054.11
2018-01-02T03:51:20.846Z,97049.95
2018-01-02T03:53:49.543Z,97053.55
2018-01-02T03:56:19.547Z,97051.55
2018-01-02T03:58:48.707Z,97068.16
2018-01-02T04:01:17.142Z,97074.28
2018-01-02T04:03:44.803Z,97076.29
2018-01-02T04:06:12.776Z,97076.39
2018-01-02T04:08:40.593Z,97095.31
2018-01-02T04:11:09.553Z,97096.50
2018-01-02T04:13:37.581Z,97102.63
2018-01-02T04:16:05.291Z,97104.61
2018-01-02T04:18:32.832Z,97104.37
2018-01-02T04:21:00.408Z,97118.20
2018-01-02T04:23:27.905Z,97122.81
2018-01-02T04:25:55.680Z,97123.61
2018-01-02T04:28:23.176Z,97124.14
2018-01-02T04:30:51.867Z,97117.23
2018-01-02T04:33:20.992Z,97118.77
2018-01-02T04:35:48.668Z,97131.70
2018-01-02T04:38:16.412Z,97142.16
2018-01-02T04:40:43.998Z,97141.64
2018-01-02T04:43:11.572Z,97148.56
2018-01-02T04:45:39.139Z,97148.19
2018-01-02T04:48:07.046Z,97139.80
2018-01-02T04:50:34.633Z,97139.64
2018-01-02T04:53:02.288Z,97135.80
2018-01-02T04:55:29.982Z,97140.03
2018-01-02T04:57:58.845Z,97136.66
2018-01-02T05:00:26.426Z,97131.64
2018-01-02T05:02:54.238Z,97137.85
2018-01-02T05:05:24.007Z,97143.16
2018-01-02T05:07:54.024Z,97138.77
2018-01-02T05:10:22.847Z,97143.69
2018-01-02T05:12:50.343Z,97148.11
2018-01-02T05:15:17.892Z,97125.28
2018-01-02T05:17:45.524Z,97141.33
2018-01-02T05:20:13.233Z,97150.63
2018-01-02T05:22:40.816Z,97146.74
2018-01-02T05:25:08.504Z,97147.91
2018-01-02T05:27:36.239Z,97147.55
2018-01-02T05:30:03.912Z,97159.04
2018-01-02T05:32:32.120Z,97159.41
2018-01-02T05:35:00.062Z,97157.46
2018-01-02T05:37:27.559Z,97161.70
2018-01-02T05:39:56.052Z,97152.27
2018-01-02T05:42:28.022Z,97167.16
2018-01-02T05:44:55.692Z,97171.98
2018-01-02T05:47:24.800Z,97174.13
2018-01-02T05:49:54.156Z,97178.14
2018-01-02T05:52:21.840Z,97185.04
2018-01-02T05:54:49.399Z,97178.91
2018-01-02T05:57:17.007Z,97185.83
2018-01-02T05:59:44.612Z,97189.31
2018-01-02T06:02:12.279Z,97165.69
2018-01-02T06:04:40.136Z,97194.23
2018-01-02T06:07:07.756Z,97200.61
2018-01-02T06:09:35.697Z,97204.05
2018-01-02T06:12:03.210Z,97204.89
2018-01-02T06:14:30.811Z,97197.86
2018-01-02T06:16:58.391Z,97200.81
2018-01-02T06:19:26.645Z,97203.72
2018-01-02T06:21:55.524Z,97213.66
2018-01-02T06:24:23.194Z,97222.81
2018-01-02T06:26:51.888Z,97228.99
2018-01-02T06:29:19.777Z,97249.89
2018-01-02T06:31:47.391Z,97253.79
2018-01-02T06:34:15.087Z,97277.43
2018-01-02T06:36:42.678Z,97289.49
2018-01-02T06:39:10.215Z,97275.62
2018-01-02T06:41:37.754Z,97260.02
2018-01-02T06:44:05.296Z,97255.12
2018-01-02T06:46:32.905Z,97249.45
2018-01-02T06:49:00.383Z,97272.55
2018-01-02T06:51:28.083Z,97289.41
2018-01-02T06:53:56.818Z,97284.28
2018-01-02T06:56:24.405Z,97299.51
2018-01-02T06:58:52.211Z,97304.20
2018-01-02T07:01:19.832Z,97303.00
2018-01-02T07:03:47.945Z,97318.70
2018-01-02T07:06:15.397Z,97319.13
2018-01-02T07:08:42.954Z,97319.52
2018-01-02T07:11:11.002Z,97327.20
2018-01-02T07:13:38.498Z,97331.81
2018-01-02T07:16:06.001Z,97342.02
2018-01-02T07:18:33.475Z,97342.04
2018-01-02T07:21:00.957Z,97348.91
2018-01-02T07:23:28.687Z,97351.42
2018-01-02T07:25:56.565Z,97357.22
2018-01-02T07:28:24.083Z,97367.95
2018-01-02T07:30:51.744Z,97381.27
2018-01-02T07:33:19.351Z,97387.37
2018-01-02T07:35:46.856Z,97383.20
2018-01-02T07:38:14.396Z,97392.47
2018-01-02T07:40:42.028Z,97377.86
2018-01-02T07:43:09.487Z,97383.36
2018-01-02T07:45:36.984Z,97387.41
2018-01-02T07:48:04.595Z,97399.71
2018-01-02T07:50:32.075Z,97412.77
2018-01-02T07:52:59.566Z,97423.98
2018-01-02T07:55:27.481Z,97417.92
2018-01-02T07:57:59.177Z,97433.78
2018-01-02T08:00:26.638Z,97421.51
2018-01-02T08:02:54.124Z,97433.41
2018-01-02T08:05:21.612Z,97434.70
2018-01-02T08:07:49.332Z,97434.77
2018-01-02T08:10:17.026Z,97440.95
2018-01-02T08:12:44.744Z,97437.64
2018-01-02T08:15:12.678Z,97429.78
2018-01-02T08:17:40.353Z,97418.22
2018-01-02T08:20:09.368Z,97428.09
2018-01-02T08:22:42.635Z,97424.70
2018-01-02T08:25:10.668Z,97432.44
2018-01-02T08:27:40.519Z,97423.93
2018-01-02T08:30:08.769Z,97440.56
2018-01-02T08:35:33.672Z,97430.74
2018-01-02T08:38:20.960Z,97438.47
2018-01-02T08:46:20.349Z,97457.24
2018-01-02T08:48:51.327Z,97474.55
2018-01-02T08:54:35.342Z,97488.89
2018-01-02T08:57:03.034Z,97498.10
2018-01-02T08:59:32.157Z,97497.95
2018-01-02T09:02:01.437Z,97504.08
2018-01-02T09:04:30.361Z,97523.72
2018-01-02T09:06:59.358Z,97525.62
2018-01-02T09:09:30.908Z,97524.41
2018-01-02T09:12:01.784Z,97537.22
2018-01-02T09:14:35.335Z,97543.94
2018-01-02T09:17:05.546Z,97556.72
2018-01-02T09:19:33.241Z,97576.78
2018-01-02T09:22:01.756Z,97577.54
2018-01-02T09:24:34.301Z,97584.48
2018-01-02T09:27:02.392Z,97589.62
2018-01-02T09:29:30.232Z,97589.70
2018-01-02T09:31:58.148Z,97585.33
2018-01-02T09:34:29.390Z,97587.91
2018-01-02T09:36:58.113Z,97584.76
2018-01-02T09:39:26.278Z,97584.02
2018-01-02T09:41:55.384Z,97580.73
2018-01-02T09:44:24.920Z,97587.14
2018-01-02T09:46:53.786Z,97578.27
2018-01-02T09:49:25.389Z,97585.31
2018-01-02T09:51:52.852Z,97601.27
2018-01-02T09:54:20.334Z,97600.56
2018-01-02T09:56:47.811Z,97595.62
2018-01-02T09:59:15.405Z,97601.91
2018-01-02T10:01:42.971Z,97600.06
2018-01-02T10:04:10.652Z,97598.02
2018-01-02T10:06:38.227Z,97593.87
2018-01-02T10:09:07.579Z,97603.30
2018-01-02T10:11:36.219Z,97601.85
2018-01-02T10:14:04.170Z,97604.11
2018-01-02T10:16:31.672Z,97607.00
2018-01-02T10:18:59.213Z,97612.55
2018-01-02T10:21:26.692Z,97604.77
2018-01-02T10:23:54.502Z,97602.79
2018-01-02T10:26:22.079Z,97604.80
2018-01-02T10:28:49.617Z,97607.55
2018-01-02T10:31:17.138Z,97594.23
2018-01-02T10:33:44.838Z,97610.92
2018-01-02T10:36:12.418Z,97599.18
2018-01-02T10:38:39.958Z,97607.86
2018-01-02T10:41:07.532Z,97617.19
2018-01-02T10:43:36.033Z,97611.57
2018-01-02T10:46:05.249Z,97612.52
2018-01-02T10:48:32.868Z,97621.64
2018-01-02T10:51:00.380Z,97618.95
2018-01-02T10:53:27.920Z,97625.98
2018-01-02T10:55:55.439Z,97625.07
2018-01-02T10:58:24.088Z,97634.52
2018-01-02T11:00:58.000Z,97624.00
2018-01-02T11:03:25.511Z,97626.19
2018-01-02T11:05:53.248Z,97623.69
2018-01-02T11:08:21.544Z,97629.98
2018-01-02T11:10:49.483Z,97617.27
2018-01-02T11:13:17.065Z,97622.75
2018-01-02T11:15:44.539Z,97595.07
2018-01-02T11:18:12.059Z,97594.81
2018-01-02T11:20:39.614Z,97628.85
2018-01-02T11:23:07.991Z,97627.91
2018-01-02T11:25:36.639Z,97626.34
2018-01-02T11:28:04.391Z,97621.17
2018-01-02T11:30:31.942Z,97626.05
2018-01-02T11:32:59.518Z,97623.85
2018-01-02T11:35:27.041Z,97624.00
2018-01-02T11:37:54.554Z,97635.09
2018-01-02T11:40:22.182Z,97628.36
2018-01-02T11:42:49.849Z,97625.05
2018-01-02T11:45:17.550Z,97625.86
2018-01-02T11:47:45.073Z,97626.97
2018-01-02T11:50:12.730Z,97626.47
2018-01-02T11:52:40.280Z,97630.59
2018-01-02T11:55:08.699Z,97639.69
2018-01-02T11:57:36.218Z,97648.55
2018-01-02T12:00:04.038Z,97652.28
2018-01-02T12:02:32.055Z,97652.42
2018-01-02T12:04:59.629Z,97646.81
2018-01-02T12:07:30.385Z,97652.70
2018-01-02T12:09:57.923Z,97648.31
2018-01-02T12:12:29.635Z,97648.34
2018-01-02T12:14:57.356Z,97645.33
2018-01-02T12:17:25.121Z,97641.50
2018-01-02T12:19:52.621Z,97646.13
2018-01-02T12:22:20.199Z,97653.47
2018-01-02T12:24:47.771Z,97644.71
2018-01-02T12:27:15.645Z,97646.20
2018-01-02T12:29:43.122Z,97648.81
2018-01-02T12:32:11.201Z,97643.67
2018-01-02T12:34:39.881Z,97652.56
2018-01-02T12:37:07.465Z,97660.73
2018-01-02T12:39:35.007Z,97662.47
2018-01-02T12:42:02.863Z,97660.51
2018-01-02T12:44:30.448Z,97661.80
2018-01-02T12:46:58.046Z,97650.00
2018-01-02T12:49:25.752Z,97658.92
2018-01-02T12:51:53.343Z,97657.84
2018-01-02T12:54:21.000Z,97643.43
2018-01-02T12:56:48.584Z,97652.80
2018-01-02T12:59:16.053Z,97646.19
2018-01-02T13:01:44.875Z,97649.93
2018-01-02T13:04:12.410Z,97635.38
2018-01-02T13:06:40.684Z,97634.14
2018-01-02T13:09:08.234Z,97626.98
2018-01-02T13:11:35.958Z,97620.66
2018-01-02T13:14:03.588Z,97621.72
2018-01-02T13:16:31.077Z,97638.23
2018-01-02T13:18:58.816Z,97618.13
2018-01-02T13:21:26.842Z,97621.95
2018-01-02T13:23:54.516Z,97613.89
2018-01-02T13:26:22.145Z,97623.67
2018-01-02T13:28:49.765Z,97624.38
2018-01-02T13:31:17.343Z,97626.99
2018-01-02T13:33:44.893Z,97633.59
2018-01-02T13:36:13.182Z,97647.44
2018-01-02T13:38:41.303Z,97635.44
2018-01-02T13:41:08.812Z,97639.68
2018-01-02T13:43:36.850Z,97635.84
2018-01-02T13:46:04.412Z,97640.80
2018-01-02T13:48:33.224Z,97634.09
2018-01-02T13:51:00.765Z,97642.23
2018-01-02T13:53:28.288Z,97640.27
2018-01-02T13:55:55.819Z,97642.80
2018-01-02T13:58:25.078Z,97640.41
2018-01-02T14:00:53.565Z,97648.56
2018-01-02T14:03:21.532Z,97639.86
2018-01-02T14:05:49.078Z,97643.88
2018-01-02T14:08:18.186Z,97647.47
2018-01-02T14:10:46.070Z,97646.16
2018-01-02T14:13:14.482Z,97654.70
2018-01-02T14:15:42.685Z,97660.45
2018-01-02T14:18:12.662Z,97661.23
2018-01-02T14:20:40.701Z,97665.92
2018-01-02T14:23:08.238Z,97663.92
2018-01-02T14:25:35.854Z,97671.14
2018-01-02T14:28:03.379Z,97682.90
2018-01-02T14:30:30.913Z,97676.22
2018-01-02T14:32:58.463Z,97662.18
2018-01-02T14:35:25.966Z,97667.27
2018-01-02T14:37:53.446Z,97677.54
2018-01-02T14:40:21.018Z,97665.53
2018-01-02T14:42:48.479Z,97667.52
2018-01-02T14:45:16.291Z,97664.03
2018-01-02T14:47:44.842Z,97651.59
2018-01-02T14:50:12.383Z,97656.66
2018-01-02T15:27:41.937Z,97687.27
2018-01-02T15:30:09.449Z,97684.25
2018-01-02T15:32:36.973Z,97686.31
2018-01-02T15:35:05.080Z,97682.84
2018-01-02T15:37:32.668Z,97687.64
2018-01-02T15:40:00.198Z,97685.64
2018-01-02T15:42:27.684Z,97691.45
2018-01-02T15:44:55.373Z,97686.79
2018-01-02T15:47:22.918Z,97686.46
2018-01-02T15:49:53.520Z,97679.17
2018-01-02T15:52:21.154Z,97679.47
2018-01-02T15:54:48.963Z,97663.55
2018-01-02T15:57:17.483Z,97648.73
2018-01-02T15:59:45.260Z,97637.25
2018-01-02T16:02:13.462Z,97620.16
2018-01-02T16:04:40.911Z,97611.00
2018-01-02T16:07:09.261Z,97602.55
2018-01-02T16:09:36.826Z,97616.84
2018-01-02T16:12:04.423Z,97626.07
2018-01-02T16:14:33.804Z,97624.59
2018-01-02T16:17:01.453Z,97621.04
2018-01-02T16:19:29.022Z,97622.19
2018-01-02T16:21:57.647Z,97632.19
2018-01-02T16:24:25.255Z,97624.32
2018-01-02T16:26:53.131Z,97616.45
2018-01-02T16:29:20.885Z,97629.92
2018-01-02T16:31:48.833Z,97623.84
2018-01-02T16:34:18.131Z,97622.75
2018-01-02T16:36:48.252Z,97619.16
2018-01-02T16:39:15.810Z,97591.72
2018-01-02T16:41:43.688Z,97621.70
2018-01-02T16:44:11.246Z,97622.14
2018-01-02T16:46:38.928Z,97622.08
2018-01-02T16:49:06.454Z,97622.73
2018-01-02T16:51:34.018Z,97623.93
2018-01-02T16:54:01.698Z,97622.73
2018-01-02T16:56:29.407Z,97616.08
2018-01-02T16:58:56.976Z,97618.52
2018-01-02T17:01:24.981Z,97613.34
2018-01-02T17:03:52.760Z,97616.88
2018-01-02T17:06:20.816Z,97613.13
2018-01-02T17:08:48.292Z,97612.80
2018-01-02T17:11:17.651Z,97615.09
2018-01-02T17:13:45.200Z,97609.25
2018-01-02T17:16:12.787Z,97610.92
2018-01-02T17:18:40.305Z,97611.00
2018-01-02T17:21:07.877Z,97613.27
2018-01-02T17:23:36.077Z,97621.19
2018-01-02T17:26:14.109Z,97627.49
2018-01-02T17:28:43.069Z,97625.78
2018-01-02T17:31:14.146Z,97627.39
2018-01-02T17:33:43.573Z,97630.08
2018-01-02T17:36:11.674Z,97623.77
2018-01-02T17:38:39.971Z,97625.95
2018-01-02T17:41:08.032Z,97624.08
2018-01-02T17:43:36.113Z,97622.86
2018-01-02T17:46:06.074Z,97618.95
2018-01-02T17:48:34.295Z,97630.45
2018-01-02T17:51:03.818Z,97633.13
2018-01-02T17:53:31.711Z,97624.78
2018-01-02T17:55:59.362Z,97625.47
2018-01-02T17:58:27.201Z,97622.56
2018-01-02T18:00:54.836Z,97621.34
2018-01-02T18:03:23.675Z,97612.28
2018-01-02T18:05:52.605Z,97612.06
2018-01-02T18:08:20.209Z,97605.70
2018-01-02T18:10:47.761Z,97609.06
2018-01-02T18:13:15.382Z,97601.85
2018-01-02T18:15:42.976Z,97596.75
2018-01-02T18:18:10.523Z,97593.45
2018-01-02T18:20:38.194Z,97592.27
2018-01-02T18:23:06.081Z,97588.64
2018-01-02T18:25:33.646Z,97586.37
2018-01-02T18:28:01.786Z,97587.19
2018-01-02T18:30:30.722Z,97584.06
2018-01-02T18:32:58.513Z,97581.40
2018-01-02T18:35:26.052Z,97577.00
2018-01-02T18:37:54.428Z,97572.17
2018-01-02T18:40:23.093Z,97575.12
2018-01-02T18:42:51.027Z,97576.63
2018-01-02T18:45:18.653Z,97563.82
2018-01-02T18:47:46.604Z,97561.12
2018-01-02T18:50:14.432Z,97544.83
2018-01-02T18:52:43.218Z,97535.09
2018-01-02T18:55:10.908Z,97533.69
2018-01-02T18:57:39.099Z,97536.53
2018-01-02T19:00:07.266Z,97529.61
2018-01-02T19:02:35.246Z,97529.70
2018-01-02T19:05:03.849Z,97530.79
2018-01-02T19:07:32.014Z,97528.38
2018-01-02T19:09:59.651Z,97514.78
2018-01-02T19:12:28.254Z,97507.59
2018-01-02T19:14:57.709Z,97504.78
2018-01-02T19:17:26.330Z,97504.33
2018-01-02T19:19:54.488Z,97505.98
2018-01-02T19:22:23.089Z,97498.44
2018-01-02T19:24:50.875Z,97484.47
2018-01-02T19:27:19.176Z,97481.14
2018-01-02T19:29:46.949Z,97477.41
2018-01-02T19:32:16.425Z,97467.38
2018-01-02T19:34:44.406Z,97463.81
2018-01-02T19:37:12.416Z,97462.98
2018-01-02T19:39:40.466Z,97465.13
2018-01-02T19:42:08.776Z,97461.25
2018-01-02T19:44:36.574Z,97465.09
2018-01-02T19:47:04.453Z,97460.17
2018-01-02T19:49:32.109Z,97455.23
2018-01-02T19:51:59.745Z,97447.92
2018-01-02T19:54:28.365Z,97446.05
2018-01-02T19:56:57.241Z,97456.59
2018-01-02T19:59:26.704Z,97453.13
2018-01-02T20:01:54.497Z,97451.23
2018-01-02T20:04:22.210Z,97454.83
2018-01-02T20:06:50.125Z,97452.42
2018-01-02T20:09:19.795Z,97456.45
2018-01-02T20:11:48.130Z,97462.31
2018-01-02T20:14:16.167Z,97461.38
2018-01-02T20:16:44.274Z,97464.70
2018-01-02T20:19:14.071Z,97453.75
2018-01-02T20:21:42.067Z,97452.96
2018-01-02T20:24:10.493Z,97413.55
2018-01-02T20:26:39.042Z,97429.20
2018-01-02T20:29:06.848Z,97425.61
2018-01-02T20:31:34.557Z,97425.23
2018-01-02T20:34:02.257Z,97425.75
2018-01-02T20:36:43.949Z,97416.67
2018-01-02T20:41:44.663Z,97398.28
2018-01-02T20:44:13.342Z,97359.97
2018-01-02T20:46:40.924Z,97381.04
2018-01-02T20:49:09.287Z,97377.58
2018-01-02T20:51:37.458Z,97367.84
2018-01-02T20:54:06.860Z,97361.31
2018-01-02T20:56:34.597Z,97365.70
2018-01-02T20:59:02.391Z,97369.31
2018-01-02T21:01:31.682Z,97359.97
2018-01-02T21:04:03.459Z,97360.36
2018-01-02T21:06:31.098Z,97359.05
2018-01-02T21:09:00.974Z,97354.49
2018-01-02T21:11:29.490Z,97341.27
2018-01-02T21:13:58.657Z,97337.30
2018-01-02T21:16:27.950Z,97339.00
2018-01-02T21:18:55.988Z,97332.33
2018-01-02T21:21:24.006Z,97333.53
2018-01-02T21:23:51.857Z,97308.73
2018-01-02T21:26:20.574Z,97316.47
2018-01-02T21:28:49.915Z,97308.97
2018-01-02T21:31:18.366Z,97296.25
2018-01-02T21:33:47.514Z,97283.30
2018-01-02T21:36:16.013Z,97252.06
2018-01-02T21:38:45.544Z,97273.91
2018-01-02T21:41:13.810Z,97271.02
2018-01-02T21:43:41.456Z,97260.15
2018-01-02T21:46:11.614Z,97250.80
2018-01-02T21:48:39.659Z,97249.73
2018-01-02T21:51:07.390Z,97245.71
2018-01-02T21:53:36.720Z,97235.89
2018-01-02T21:56:04.452Z,97241.97
2018-01-02T21:58:33.154Z,97235.09
2018-01-02T22:01:01.554Z,97224.78
2018-01-02T22:03:29.297Z,97222.27
2018-01-02T22:05:57.813Z,97221.73
2018-01-02T22:08:26.622Z,97226.13
2018-01-02T22:10:55.298Z,97223.20
2018-01-02T22:13:23.216Z,97210.72
2018-01-02T22:15:51.835Z,97206.92
2018-01-02T22:18:23.563Z,97207.65
2018-01-02T22:20:54.907Z,97200.58
2018-01-02T22:23:23.086Z,97199.33
2018-01-02T22:25:50.671Z,97194.64
2018-01-02T22:28:18.260Z,97188.84
2018-01-02T22:30:45.897Z,97188.37
2018-01-02T22:33:13.496Z,97184.08
2018-01-02T22:35:42.849Z,97179.06
2018-01-02T22:38:11.770Z,97168.91
2018-01-02T22:40:39.594Z,97165.22
2018-01-02T22:43:09.925Z,97104.22
2018-01-02T22:45:37.562Z,97165.80
2018-01-02T22:48:05.863Z,97152.98
2018-01-02T22:50:37.794Z,97144.81
2018-01-02T22:53:05.932Z,97134.92
2018-01-02T22:55:34.184Z,97121.05
2018-01-02T22:58:01.705Z,97110.42
2018-01-02T23:00:29.335Z,97062.27
2018-01-02T23:02:56.975Z,97105.27
2018-01-02T23:05:25.368Z,97102.87
2018-01-02T23:07:53.831Z,97088.86
2018-01-02T23:10:21.491Z,97095.38
2018-01-02T23:12:49.653Z,97080.64
2018-01-02T23:15:18.177Z,97090.63
2018-01-02T23:17:45.805Z,97077.31
2018-01-02T23:20:15.265Z,97065.47
2018-01-02T23:22:43.067Z,97057.73
2018-01-02T23:25:10.752Z,97041.27
2018-01-02T23:27:38.291Z,97039.80
2018-01-02T23:30:06.310Z,97032.92
2018-01-02T23:32:35.056Z,97021.75
2018-01-02T23:35:02.732Z,97027.48
2018-01-02T23:37:30.462Z,97006.99
2018-01-02T23:39:58.097Z,97002.94
2018-01-02T23:42:26.541Z,97007.38
2018-01-02T23:44:54.479Z,96992.77
2018-01-02T23:47:21.988Z,96995.47
2018-01-02T23:49:50.405Z,96986.66
2018-01-02T23:52:19.602Z,96981.70
2018-01-02T23:54:48.939Z,96984.23
2018-01-02T23:57:16.600Z,96973.94
2018-01-02T23:59:44.221Z,96959.19
